Star Navarra — V7ZD8 — position and weather

sailwx.info

Track history (hours):
 
Tides and Currents Weather Stations Pressure Air Temp Water Temp Dewpoint Dewpoint Depression Visibility Wind Speed Wind Dir Waves Ship Positions

Star Navarra

Last reported at 2018-Jan-20 16:59 UTC. Time now 2018-Jan-20 17:23 UTC.
Position N 45°47' E 013°33'.

Length 199 m; draft 7.3 m.

Type: Cargo ship. MMSI: 538007656.

Date/timePositionNaut miles runAvg speedWind from/ knotsBaromVisibWave heightAir tempDewpointWater temp
2018-Jan-20 16:59N 45°47' E 013°33'0 0.0
2018-Jan-20 16:28N 45°47' E 013°33'0 0.0
2018-Jan-20 15:59N 45°47' E 013°33'0 0.0
2018-Jan-20 15:29N 45°47' E 013°33'0 0.0
2018-Jan-20 14:59N 45°47' E 013°33'0 0.0
2018-Jan-20 14:29N 45°47' E 013°33'0 0.0
2018-Jan-20 13:58N 45°47' E 013°33'0 0.0
2018-Jan-20 13:28N 45°47' E 013°33'0 0.0
2018-Jan-20 12:58N 45°47' E 013°33'0 0.0
2018-Jan-20 12:28N 45°47' E 013°33'0 0.0
2018-Jan-20 11:59N 45°47' E 013°33'0 0.0
2018-Jan-20 11:29N 45°47' E 013°33'0 0.0
2018-Jan-20 10:58N 45°47' E 013°33'0 0.0
2018-Jan-20 10:28N 45°47' E 013°33'0 0.0
2018-Jan-20 09:58N 45°47' E 013°33'0 0.0
2018-Jan-20 09:26N 45°47' E 013°33'0 0.0
2018-Jan-20 08:58N 45°47' E 013°33'0 0.0
2018-Jan-20 08:28N 45°47' E 013°33'0 0.0
2018-Jan-20 07:58N 45°47' E 013°33'0 0.0
2018-Jan-20 07:25N 45°47' E 013°33'0 0.0
2018-Jan-20 06:58N 45°47' E 013°33'0 0.0
2018-Jan-20 06:28N 45°47' E 013°33'0 0.0
2018-Jan-20 05:58N 45°47' E 013°33'0 0.0
2018-Jan-20 05:28N 45°47' E 013°33'1 1.5
2018-Jan-20 05:00N 45°46' E 013°34'3 6.9
2018-Jan-20 04:30N 45°44' E 013°37'5 8.7
2018-Jan-20 03:58N 45°39' E 013°38'511.5
2018-Jan-20 03:30N 45°35' E 013°33'713.7
2018-Jan-20 03:00N 45°32' E 013°24'713.1
2018-Jan-20 02:31N 45°28' E 013°16'612.9
2018-Jan-20 02:01N 45°23' E 013°11'713.3
2018-Jan-20 01:30N 45°17' E 013°13'913.4
2018-Jan-20 00:52N 45°08' E 013°16'513.5
2018-Jan-20 00:30N 45°04' E 013°18'813.5
2018-Jan-19 23:54N 44°56' E 013°23'714.0
2018-Jan-19 23:23N 44°50' E 013°29'514.0
2018-Jan-19 23:00N 44°46' E 013°33'814.1
2018-Jan-19 22:28N 44°40' E 013°38'714.2
2018-Jan-19 22:00N 44°34' E 013°44'1314.0
2018-Jan-19 21:06N 44°23' E 013°53'114.0
2018-Jan-19 21:00N 44°22' E 013°54'40111.1
2018-Jan-18 08:45N 37°52' E 015°53'515.0
2018-Jan-18 08:27N 37°52' E 015°47'1014.1
2018-Jan-18 07:45N 37°57' E 015°36'415.8
2018-Jan-18 07:30N 38°00' E 015°34'8312.4
2018-Jan-18 00:48N 39°19' E 015°03'  
2018-Jan-12 14:57N 43°33' E 010°18'0 0.0
2018-Jan-12 14:30N 43°33' E 010°18'0 0.0
2018-Jan-12 13:54N 43°33' E 010°18'0 0.0
2018-Jan-12 13:30N 43°33' E 010°18'0 0.0
2018-Jan-12 13:00N 43°33' E 010°18'0 0.0
2018-Jan-12 12:27N 43°33' E 010°18'0 0.0
2018-Jan-12 12:00N 43°33' E 010°18'2 3.5
2018-Jan-12 11:30N 43°32' E 010°16'4 7.5
2018-Jan-12 11:00N 43°29' E 010°13'510.3
2018-Jan-12 10:30N 43°26' E 010°08'713.1
2018-Jan-12 10:00N 43°21' E 010°01'612.3
2018-Jan-12 09:30N 43°18' E 009°54'613.1
2018-Jan-12 09:01N 43°17' E 009°45'713.0
2018-Jan-12 08:31N 43°16' E 009°36'713.5
2018-Jan-12 08:01N 43°15' E 009°27'713.7
2018-Jan-12 07:31N 43°14' E 009°18'8412.9
2018-Jan-12 01:01N 43°02' E 007°24'011.9
2018-Jan-12 01:00N 43°02' E 007°24'713.4
2018-Jan-12 00:30N 43°01' E 007°15'713.8
2018-Jan-12 00:00N 42°60' E 007°06'9312.9
2018-Jan-11 16:48N 43°02' E 004°59'413.7
2018-Jan-11 16:29N 43°04' E 004°53'813.6
2018-Jan-11 15:55N 43°06' E 004°43'613.8
2018-Jan-11 15:30N 43°08' E 004°35'  
Track history (hours):
 
Tides and Currents Weather Stations Pressure Air Temp Water Temp Dewpoint Dewpoint Depression Visibility Wind Speed Wind Dir Waves Ship Positions

Star Navarra

Last reported at 2018-Jan-20 16:59 UTC. Time now 2018-Jan-20 17:23 UTC.
Position N 45°47' E 013°33'.

Length 199 m; draft 7.3 m.

Type: Cargo ship. MMSI: 538007656.

Date/timePositionNaut miles runAvg speedWind from/ knotsBaromVisibWave heightAir tempDewpointWater temp
2018-Jan-20 16:59N 45°47' E 013°33'0 0.0
2018-Jan-20 16:28N 45°47' E 013°33'0 0.0
2018-Jan-20 15:59N 45°47' E 013°33'0 0.0
2018-Jan-20 15:29N 45°47' E 013°33'0 0.0
2018-Jan-20 14:59N 45°47' E 013°33'0 0.0
2018-Jan-20 14:29N 45°47' E 013°33'0 0.0
2018-Jan-20 13:58N 45°47' E 013°33'0 0.0
2018-Jan-20 13:28N 45°47' E 013°33'0 0.0
2018-Jan-20 12:58N 45°47' E 013°33'0 0.0
2018-Jan-20 12:28N 45°47' E 013°33'0 0.0
2018-Jan-20 11:59N 45°47' E 013°33'0 0.0
2018-Jan-20 11:29N 45°47' E 013°33'0 0.0
2018-Jan-20 10:58N 45°47' E 013°33'0 0.0
2018-Jan-20 10:28N 45°47' E 013°33'0 0.0
2018-Jan-20 09:58N 45°47' E 013°33'0 0.0
2018-Jan-20 09:26N 45°47' E 013°33'0 0.0
2018-Jan-20 08:58N 45°47' E 013°33'0 0.0
2018-Jan-20 08:28N 45°47' E 013°33'0 0.0
2018-Jan-20 07:58N 45°47' E 013°33'0 0.0
2018-Jan-20 07:25N 45°47' E 013°33'0 0.0
2018-Jan-20 06:58N 45°47' E 013°33'0 0.0
2018-Jan-20 06:28N 45°47' E 013°33'0 0.0
2018-Jan-20 05:58N 45°47' E 013°33'0 0.0
2018-Jan-20 05:28N 45°47' E 013°33'1 1.5
2018-Jan-20 05:00N 45°46' E 013°34'3 6.9
2018-Jan-20 04:30N 45°44' E 013°37'5 8.7
2018-Jan-20 03:58N 45°39' E 013°38'511.5
2018-Jan-20 03:30N 45°35' E 013°33'713.7
2018-Jan-20 03:00N 45°32' E 013°24'713.1
2018-Jan-20 02:31N 45°28' E 013°16'612.9
2018-Jan-20 02:01N 45°23' E 013°11'713.3
2018-Jan-20 01:30N 45°17' E 013°13'913.4
2018-Jan-20 00:52N 45°08' E 013°16'513.5
2018-Jan-20 00:30N 45°04' E 013°18'813.5
2018-Jan-19 23:54N 44°56' E 013°23'714.0
2018-Jan-19 23:23N 44°50' E 013°29'514.0
2018-Jan-19 23:00N 44°46' E 013°33'814.1
2018-Jan-19 22:28N 44°40' E 013°38'714.2
2018-Jan-19 22:00N 44°34' E 013°44'1314.0
2018-Jan-19 21:06N 44°23' E 013°53'114.0
2018-Jan-19 21:00N 44°22' E 013°54'40111.1
2018-Jan-18 08:45N 37°52' E 015°53'515.0
2018-Jan-18 08:27N 37°52' E 015°47'1014.1
2018-Jan-18 07:45N 37°57' E 015°36'415.8
2018-Jan-18 07:30N 38°00' E 015°34'8312.4
2018-Jan-18 00:48N 39°19' E 015°03'  
2018-Jan-12 14:57N 43°33' E 010°18'0 0.0
2018-Jan-12 14:30N 43°33' E 010°18'0 0.0
2018-Jan-12 13:54N 43°33' E 010°18'0 0.0
2018-Jan-12 13:30N 43°33' E 010°18'0 0.0
2018-Jan-12 13:00N 43°33' E 010°18'0 0.0
2018-Jan-12 12:27N 43°33' E 010°18'0 0.0
2018-Jan-12 12:00N 43°33' E 010°18'2 3.5
2018-Jan-12 11:30N 43°32' E 010°16'4 7.5
2018-Jan-12 11:00N 43°29' E 010°13'510.3
2018-Jan-12 10:30N 43°26' E 010°08'713.1
2018-Jan-12 10:00N 43°21' E 010°01'612.3
2018-Jan-12 09:30N 43°18' E 009°54'613.1
2018-Jan-12 09:01N 43°17' E 009°45'713.0
2018-Jan-12 08:31N 43°16' E 009°36'713.5
2018-Jan-12 08:01N 43°15' E 009°27'713.7
2018-Jan-12 07:31N 43°14' E 009°18'8412.9
2018-Jan-12 01:01N 43°02' E 007°24'011.9
2018-Jan-12 01:00N 43°02' E 007°24'713.4
2018-Jan-12 00:30N 43°01' E 007°15'713.8
2018-Jan-12 00:00N 42°60' E 007°06'9312.9
2018-Jan-11 16:48N 43°02' E 004°59'413.7
2018-Jan-11 16:29N 43°04' E 004°53'813.6
2018-Jan-11 15:55N 43°06' E 004°43'613.8
2018-Jan-11 15:30N 43°08' E 004°35'  

Dump ship's entire track history